Terminal Aerodrome Forecast
Issued by NWS

Home | Current Version | Previous Version | Text Only | Print | Product List | Glossary On
Versions: 1 2 3 4 5 6 7 8 9 10 11 12 13 14 15 16 17 18 19 20 21
000
FTUS43 KEAX 201512 AAA
TAFSTJ
TAF AMD
KSTJ 201512Z 2015/2112 00000KT 1SM BR OVC003
     FM201800 08006KT 3SM BR OVC008
     FM202000 10008KT P6SM OVC008
     FM210400 17006KT P6SM BKN050=

USA.gov is the U.S. government's official web portal to all federal, state and local government web resources and services.